Dobrodošli na spletni strani vremenske postaje Senovo. Vse informacije so informativnega značaja, saj vremenska postaja ni del državne mreže meteoroloških postaj. AKTUALNIH OBVESTIL NI.


Posebna pozornost v zvezi z vremenskimi dogajanji ni potrebna.    Posebna pozornost v zvezi z vremenskimi dogajanji ni potrebna.

Pogled proti Armezu več informacij Pogled proti Armezu


Bohor več informacij Bohor


Radar strel več informacij blitzortung!


Radar padavin več informacij rain snow radar


Obiščite še:

Template documentation
and downloads

And another site



Weather Underground, zgodovina - Tekstovno

Dnevni povzetek za Januar 21, 2018 Enote:  Obe    Angleško   Metrično
« Predhodni Dan
Naslednji Dan »
Dnevni Tedenski Mesečni Letni Po meri
  Višja: Nižja: Povprečje:
Temperatura: TemperatureC °F /  -17.8 °C -0.7 °F /  -18.2 °C 2.3 °F /  -16.5 °C
Točka rosišča: DewpointC °F /  -17.8 °C -4.0 °F /  -20 °C 0.2 °F /  -17.7 °C
Vlažnost: Humidity % 57 % 87 %
Hitrost vetra: WindSpeedKMH mph /  0 km/h - 2.2 mph /  3.5 km/h
Sunki vetra: WindSpeedGustKMH mph /  0 km/h - -
Veter:- - South
Zračni tlak: PressurehPa in /  0 hPa 997.9 in /  33788.9 hPa -
Padavine: 0.0 in /  0 mm    
Historical Graphs
 
 
Tabelarni podarki za Januar 21, 2018
Čas Temperatura Točka rosišča Zračni tlak Veter Hitrost vetra Sunki vetra Vlažnost Intenziteta padavin (urna)
TemperatureC °F /  -17.8 °C DewpointC °F /  -17.8 °C PressurehPa in /  0 hPa Calm     Humidity % HourlyPrecipMM in /  0 mm
00:01 0.8 °F /  -17.3 °C 0.2 °F /  -17.7 °C 1002.9 in /  33958.2 hPa SW 0.8 mph /  1.3 km/h 4.3 mph /  6.9 km/h 96 % 0.0 in /  0 mm
00:06 0.8 °F /  -17.3 °C 0.2 °F /  -17.7 °C 1002.9 in /  33958.2 hPa SSW 1.9 mph /  3.1 km/h 5.0 mph /  8 km/h 96 % 0.0 in /  0 mm
00:11 0.8 °F /  -17.3 °C 0.2 °F /  -17.7 °C 1002.9 in /  33958.2 hPa South 1.6 mph /  2.6 km/h 5.0 mph /  8 km/h 96 % 0.0 in /  0 mm
00:16 0.8 °F /  -17.3 °C 0.2 °F /  -17.7 °C 1002.9 in /  33958.2 hPa South 0.5 mph /  0.8 km/h 3.2 mph /  5.1 km/h 96 % 0.0 in /  0 mm
00:21 0.8 °F /  -17.3 °C 0.2 °F /  -17.7 °C 1002.9 in /  33958.2 hPa Calm     96 % 0.0 in /  0 mm
00:26 0.8 °F /  -17.3 °C 0.2 °F /  -17.7 °C 1002.9 in /  33958.2 hPa SW 1.0 mph /  1.6 km/h 4.7 mph /  7.6 km/h 96 % 0.0 in /  0 mm
00:31 0.8 °F /  -17.3 °C 0.2 °F /  -17.7 °C 1002.9 in /  33958.2 hPa SSW 2.9 mph /  4.7 km/h 6.9 mph /  11.1 km/h 96 % 0.0 in /  0 mm
00:36 0.7 °F /  -17.4 °C 0.1 °F /  -17.7 °C 1002.9 in /  33958.2 hPa South 4.3 mph /  6.9 km/h 8.7 mph /  14 km/h 96 % 0.0 in /  0 mm
00:41 0.7 °F /  -17.4 °C 0.1 °F /  -17.7 °C 1001.9 in /  33924.3 hPa South 5.3 mph /  8.5 km/h 8.7 mph /  14 km/h 96 % 0.0 in /  0 mm
00:46 0.7 °F /  -17.4 °C 0.1 °F /  -17.7 °C 1001.9 in /  33924.3 hPa SSE 4.7 mph /  7.6 km/h 7.6 mph /  12.2 km/h 96 % 0.0 in /  0 mm
00:51 0.7 °F /  -17.4 °C 0.1 °F /  -17.7 °C 1001.9 in /  33924.3 hPa SE 2.6 mph /  4.2 km/h 5.8 mph /  9.3 km/h 96 % 0.0 in /  0 mm
00:56 0.6 °F /  -17.4 °C 0.1 °F /  -17.7 °C 1000.9 in /  33890.5 hPa South 0.6 mph /  1 km/h 4.3 mph /  6.9 km/h 96 % 0.0 in /  0 mm
01:01 0.6 °F /  -17.4 °C 0.1 °F /  -17.7 °C 1000.9 in /  33890.5 hPa ESE 0.2 mph /  0.3 km/h 3.5 mph /  5.6 km/h 96 % 0.0 in /  0 mm
01:06 0.6 °F /  -17.4 °C 0.1 °F /  -17.7 °C 1000.9 in /  33890.5 hPa SE 1.3 mph /  2.1 km/h 4.0 mph /  6.4 km/h 96 % 0.0 in /  0 mm
01:11 0.6 °F /  -17.4 °C 0.1 °F /  -17.7 °C 1000.9 in /  33890.5 hPa SE 1.8 mph /  2.9 km/h 6.1 mph /  9.8 km/h 96 % 0.0 in /  0 mm
01:16 0.6 °F /  -17.4 °C 0.1 °F /  -17.7 °C 1000.9 in /  33890.5 hPa ESE 1.6 mph /  2.6 km/h 6.1 mph /  9.8 km/h 96 % 0.0 in /  0 mm
01:21 0.6 °F /  -17.4 °C 0.1 °F /  -17.7 °C 1000.9 in /  33890.5 hPa ESE 1.1 mph /  1.8 km/h 5.0 mph /  8 km/h 96 % 0.0 in /  0 mm
01:26 0.6 °F /  -17.4 °C 0.1 °F /  -17.7 °C 999.9 in /  33856.6 hPa ESE 0.6 mph /  1 km/h 4.3 mph /  6.9 km/h 96 % 0.0 in /  0 mm
01:31 0.6 °F /  -17.4 °C 0.1 °F /  -17.7 °C 999.9 in /  33856.6 hPa ESE 0.5 mph /  0.8 km/h 4.3 mph /  6.9 km/h 96 % 0.0 in /  0 mm
01:36 0.6 °F /  -17.4 °C 0.1 °F /  -17.7 °C 999.9 in /  33856.6 hPa SSE 1.0 mph /  1.6 km/h 4.0 mph /  6.4 km/h 96 % 0.0 in /  0 mm
01:41 0.6 °F /  -17.4 °C 0.1 °F /  -17.7 °C 999.9 in /  33856.6 hPa South 2.1 mph /  3.4 km/h 5.8 mph /  9.3 km/h 96 % 0.0 in /  0 mm
01:46 0.6 °F /  -17.4 °C 0.1 °F /  -17.7 °C 999.9 in /  33856.6 hPa South 2.7 mph /  4.3 km/h 6.9 mph /  11.1 km/h 96 % 0.0 in /  0 mm
01:51 0.6 °F /  -17.4 °C 0.1 °F /  -17.7 °C 999.9 in /  33856.6 hPa SSW 2.1 mph /  3.4 km/h 6.9 mph /  11.1 km/h 96 % 0.0 in /  0 mm
01:56 0.6 °F /  -17.4 °C 0.1 °F /  -17.7 °C 999.9 in /  33856.6 hPa SW 2.6 mph /  4.2 km/h 5.8 mph /  9.3 km/h 96 % 0.0 in /  0 mm
02:01 0.6 °F /  -17.4 °C 0.1 °F /  -17.7 °C 999.9 in /  33856.6 hPa SW 3.1 mph /  5 km/h 5.8 mph /  9.3 km/h 96 % 0.0 in /  0 mm
02:06 0.6 °F /  -17.4 °C 0.1 °F /  -17.7 °C 999.9 in /  33856.6 hPa WSW 3.2 mph /  5.1 km/h 5.8 mph /  9.3 km/h 96 % 0.0 in /  0 mm
02:11 0.6 °F /  -17.4 °C 0.1 °F /  -17.7 °C 999.9 in /  33856.6 hPa WSW 3.9 mph /  6.3 km/h 5.8 mph /  9.3 km/h 96 % 0.0 in /  0 mm
02:16 0.6 °F /  -17.4 °C 0.1 °F /  -17.7 °C 999.9 in /  33856.6 hPa West 2.4 mph /  3.9 km/h 4.0 mph /  6.4 km/h 96 % 0.0 in /  0 mm
02:21 0.6 °F /  -17.4 °C 0.1 °F /  -17.7 °C 999.9 in /  33856.6 hPa NNW 1.0 mph /  1.6 km/h 3.5 mph /  5.6 km/h 96 % 0.0 in /  0 mm
02:26 0.6 °F /  -17.4 °C 0.1 °F /  -17.7 °C 1000.9 in /  33890.5 hPa SSE 1.8 mph /  2.9 km/h 5.8 mph /  9.3 km/h 96 % 0.0 in /  0 mm
02:31 0.6 °F /  -17.4 °C 0.1 °F /  -17.7 °C 1000.9 in /  33890.5 hPa SSE 1.6 mph /  2.6 km/h 5.8 mph /  9.3 km/h 96 % 0.0 in /  0 mm
02:36 0.6 °F /  -17.4 °C 0.1 °F /  -17.7 °C 1000.9 in /  33890.5 hPa North 0.2 mph /  0.3 km/h   96 % 0.0 in /  0 mm
02:41 0.6 °F /  -17.4 °C 0.1 °F /  -17.7 °C 999.9 in /  33856.6 hPa Calm     96 % 0.0 in /  0 mm
02:46 0.6 °F /  -17.4 °C 0.1 °F /  -17.7 °C 999.9 in /  33856.6 hPa Calm     96 % 0.0 in /  0 mm
02:51 0.6 °F /  -17.4 °C 0.1 °F /  -17.7 °C 999.9 in /  33856.6 hPa SSE 0.2 mph /  0.3 km/h 3.5 mph /  5.6 km/h 96 % 0.0 in /  0 mm
02:56 0.6 °F /  -17.4 °C 0.1 °F /  -17.7 °C 999.9 in /  33856.6 hPa SSE 0.8 mph /  1.3 km/h 3.5 mph /  5.6 km/h 96 % 0.0 in /  0 mm
03:01 0.7 °F /  -17.4 °C 0.1 °F /  -17.7 °C 999.9 in /  33856.6 hPa SSE 0.6 mph /  1 km/h 3.5 mph /  5.6 km/h 96 % 0.0 in /  0 mm
03:06 0.7 °F /  -17.4 °C 0.1 °F /  -17.7 °C 999.9 in /  33856.6 hPa Calm     96 % 0.0 in /  0 mm
03:11 0.7 °F /  -17.4 °C 0.1 °F /  -17.7 °C 998.9 in /  33822.8 hPa Calm     96 % 0.0 in /  0 mm
03:16 0.7 °F /  -17.4 °C 0.1 °F /  -17.7 °C 998.9 in /  33822.8 hPa Calm     96 % 0.0 in /  0 mm
03:21 0.7 °F /  -17.4 °C 0.1 °F /  -17.7 °C 998.9 in /  33822.8 hPa Calm     96 % 0.0 in /  0 mm
03:27 0.7 °F /  -17.4 °C 0.1 °F /  -17.7 °C 998.9 in /  33822.8 hPa Calm     96 % 0.0 in /  0 mm
03:32 0.7 °F /  -17.4 °C 0.1 °F /  -17.7 °C 998.9 in /  33822.8 hPa Calm     96 % 0.0 in /  0 mm
03:36 0.7 °F /  -17.4 °C 0.1 °F /  -17.7 °C 998.9 in /  33822.8 hPa Calm     96 % 0.0 in /  0 mm
03:42 0.7 °F /  -17.4 °C 0.1 °F /  -17.7 °C 997.9 in /  33788.9 hPa Calm     96 % 0.0 in /  0 mm
03:47 0.7 °F /  -17.4 °C 0.1 °F /  -17.7 °C 997.9 in /  33788.9 hPa Calm     96 % 0.0 in /  0 mm
03:52 0.7 °F /  -17.4 °C 0.1 °F /  -17.7 °C 997.9 in /  33788.9 hPa SSW 0.5 mph /  0.8 km/h 4.0 mph /  6.4 km/h 96 % 0.0 in /  0 mm
03:56 0.8 °F /  -17.3 °C 0.2 °F /  -17.7 °C 998.9 in /  33822.8 hPa South 1.1 mph /  1.8 km/h 5.0 mph /  8 km/h 96 % 0.0 in /  0 mm
04:01 0.7 °F /  -17.4 °C 0.1 °F /  -17.7 °C 998.9 in /  33822.8 hPa SSW 1.0 mph /  1.6 km/h 5.0 mph /  8 km/h 96 % 0.0 in /  0 mm
04:07 0.8 °F /  -17.3 °C 0.2 °F /  -17.7 °C 998.9 in /  33822.8 hPa South 0.5 mph /  0.8 km/h 3.2 mph /  5.1 km/h 96 % 0.0 in /  0 mm
04:12 0.8 °F /  -17.3 °C 0.2 °F /  -17.7 °C 997.9 in /  33788.9 hPa SSE 0.8 mph /  1.3 km/h 5.0 mph /  8 km/h 96 % 0.0 in /  0 mm
04:17 0.8 °F /  -17.3 °C 0.4 °F /  -17.6 °C 997.9 in /  33788.9 hPa SSE 2.4 mph /  3.9 km/h 5.8 mph /  9.3 km/h 97 % 0.0 in /  0 mm
04:22 0.8 °F /  -17.3 °C 0.4 °F /  -17.6 °C 997.9 in /  33788.9 hPa South 3.4 mph /  5.5 km/h 5.8 mph /  9.3 km/h 97 % 0.0 in /  0 mm
04:27 0.7 °F /  -17.4 °C 0.3 °F /  -17.6 °C 998.9 in /  33822.8 hPa South 1.9 mph /  3.1 km/h 5.0 mph /  8 km/h 97 % 0.0 in /  0 mm
04:32 0.7 °F /  -17.4 °C 0.3 °F /  -17.6 °C 998.9 in /  33822.8 hPa SSE 0.3 mph /  0.5 km/h 3.5 mph /  5.6 km/h 97 % 0.0 in /  0 mm
04:37 0.7 °F /  -17.4 °C 0.3 °F /  -17.6 °C 998.9 in /  33822.8 hPa South 0.5 mph /  0.8 km/h 5.8 mph /  9.3 km/h 97 % 0.0 in /  0 mm
04:42 0.7 °F /  -17.4 °C 0.3 °F /  -17.6 °C 999.9 in /  33856.6 hPa South 1.9 mph /  3.1 km/h 5.8 mph /  9.3 km/h 97 % 0.0 in /  0 mm
04:47 0.7 °F /  -17.4 °C 0.3 °F /  -17.6 °C 999.9 in /  33856.6 hPa South 2.3 mph /  3.7 km/h 4.7 mph /  7.6 km/h 97 % 0.0 in /  0 mm
04:52 0.7 °F /  -17.4 °C 0.3 °F /  -17.6 °C 999.9 in /  33856.6 hPa South 2.3 mph /  3.7 km/h 5.5 mph /  8.9 km/h 97 % 0.0 in /  0 mm
04:57 0.7 °F /  -17.4 °C 0.3 °F /  -17.6 °C 997.9 in /  33788.9 hPa South 1.9 mph /  3.1 km/h 5.5 mph /  8.9 km/h 97 % 0.0 in /  0 mm
05:02 0.7 °F /  -17.4 °C 0.3 °F /  -17.6 °C 997.9 in /  33788.9 hPa SSE 0.5 mph /  0.8 km/h 4.0 mph /  6.4 km/h 97 % 0.0 in /  0 mm
05:07 0.7 °F /  -17.4 °C 0.3 °F /  -17.6 °C 997.9 in /  33788.9 hPa Calm     97 % 0.0 in /  0 mm
05:12 0.7 °F /  -17.4 °C 0.3 °F /  -17.6 °C 998.9 in /  33822.8 hPa Calm     97 % 0.0 in /  0 mm
05:17 0.7 °F /  -17.4 °C 0.3 °F /  -17.6 °C 998.9 in /  33822.8 hPa Calm     97 % 0.0 in /  0 mm
05:22 0.7 °F /  -17.4 °C 0.3 °F /  -17.6 °C 998.9 in /  33822.8 hPa Calm     97 % 0.0 in /  0 mm
05:27 0.7 °F /  -17.4 °C 0.3 °F /  -17.6 °C 998.9 in /  33822.8 hPa SW 1.1 mph /  1.8 km/h 4.7 mph /  7.6 km/h 97 % 0.0 in /  0 mm
05:32 0.7 °F /  -17.4 °C 0.3 °F /  -17.6 °C 998.9 in /  33822.8 hPa SW 1.9 mph /  3.1 km/h 4.7 mph /  7.6 km/h 97 % 0.0 in /  0 mm
05:37 0.7 °F /  -17.4 °C 0.3 °F /  -17.6 °C 998.9 in /  33822.8 hPa SW 0.8 mph /  1.3 km/h 4.0 mph /  6.4 km/h 97 % 0.0 in /  0 mm
05:42 0.8 °F /  -17.3 °C 0.4 °F /  -17.6 °C 997.9 in /  33788.9 hPa Calm   2.1 mph /  3.4 km/h 97 % 0.0 in /  0 mm
05:47 0.7 °F /  -17.4 °C 0.3 °F /  -17.6 °C 997.9 in /  33788.9 hPa Calm     97 % 0.0 in /  0 mm
05:52 0.8 °F /  -17.3 °C 0.4 °F /  -17.6 °C 997.9 in /  33788.9 hPa Calm     97 % 0.0 in /  0 mm
05:57 0.8 °F /  -17.3 °C 0.4 °F /  -17.6 °C 997.9 in /  33788.9 hPa SSE 0.6 mph /  1 km/h 4.0 mph /  6.4 km/h 97 % 0.0 in /  0 mm
06:02 0.8 °F /  -17.3 °C 0.4 °F /  -17.6 °C 997.9 in /  33788.9 hPa South 0.8 mph /  1.3 km/h 4.0 mph /  6.4 km/h 97 % 0.0 in /  0 mm
06:07 0.8 °F /  -17.3 °C 0.4 °F /  -17.6 °C 997.9 in /  33788.9 hPa South 0.2 mph /  0.3 km/h 3.5 mph /  5.6 km/h 97 % 0.0 in /  0 mm
06:12 0.8 °F /  -17.3 °C 0.4 °F /  -17.6 °C 997.9 in /  33788.9 hPa Calm     97 % 0.0 in /  0 mm
06:17 0.8 °F /  -17.3 °C 0.4 °F /  -17.6 °C 997.9 in /  33788.9 hPa SW 0.3 mph /  0.5 km/h 2.6 mph /  4.2 km/h 97 % 0.0 in /  0 mm
06:22 0.7 °F /  -17.4 °C 0.3 °F /  -17.6 °C 997.9 in /  33788.9 hPa SW 0.8 mph /  1.3 km/h 3.2 mph /  5.1 km/h 97 % 0.0 in /  0 mm
06:27 0.7 °F /  -17.4 °C 0.3 °F /  -17.6 °C 998.9 in /  33822.8 hPa SW 0.6 mph /  1 km/h 3.2 mph /  5.1 km/h 97 % 0.0 in /  0 mm
06:32 0.7 °F /  -17.4 °C 0.3 °F /  -17.6 °C 998.9 in /  33822.8 hPa North 0.2 mph /  0.3 km/h   97 % 0.0 in /  0 mm
06:42 0.7 °F /  -17.4 °C 0.3 °F /  -17.6 °C 998.9 in /  33822.8 hPa Calm     97 % 0.0 in /  0 mm
06:47 0.7 °F /  -17.4 °C 0.3 °F /  -17.6 °C 998.9 in /  33822.8 hPa Calm     97 % 0.0 in /  0 mm
06:52 0.8 °F /  -17.3 °C 0.4 °F /  -17.6 °C 998.9 in /  33822.8 hPa Calm     97 % 0.0 in /  0 mm
06:57 0.8 °F /  -17.3 °C 0.4 °F /  -17.6 °C 998.9 in /  33822.8 hPa Calm   1.4 mph /  2.3 km/h 97 % 0.0 in /  0 mm
07:02 0.8 °F /  -17.3 °C 0.4 °F /  -17.6 °C 998.9 in /  33822.8 hPa Calm   1.4 mph /  2.3 km/h 97 % 0.0 in /  0 mm
07:07 0.9 °F /  -17.3 °C 0.5 °F /  -17.5 °C 998.9 in /  33822.8 hPa Calm     97 % 0.0 in /  0 mm
07:12 0.9 °F /  -17.3 °C 0.5 °F /  -17.5 °C 999.9 in /  33856.6 hPa ESE 0.6 mph /  1 km/h 4.3 mph /  6.9 km/h 97 % 0.0 in /  0 mm
07:17 0.9 °F /  -17.3 °C 0.5 °F /  -17.5 °C 999.9 in /  33856.6 hPa ESE 0.8 mph /  1.3 km/h 4.3 mph /  6.9 km/h 97 % 0.0 in /  0 mm
07:22 0.9 °F /  -17.3 °C 0.5 °F /  -17.5 °C 999.9 in /  33856.6 hPa ESE 0.2 mph /  0.3 km/h 1.4 mph /  2.3 km/h 97 % 0.0 in /  0 mm
07:23 0.9 °F /  -17.3 °C 0.5 °F /  -17.5 °C 999.9 in /  33856.6 hPa ESE 0.2 mph /  0.3 km/h 1.4 mph /  2.3 km/h 97 % 0.0 in /  0 mm
07:28 0.9 °F /  -17.3 °C 0.5 °F /  -17.5 °C 999.9 in /  33856.6 hPa Calm     97 % 0.0 in /  0 mm
07:33 0.9 °F /  -17.3 °C 0.5 °F /  -17.5 °C 999.9 in /  33856.6 hPa Calm     97 % 0.0 in /  0 mm
07:43 0.9 °F /  -17.3 °C 0.5 °F /  -17.5 °C 999.9 in /  33856.6 hPa NE 0.8 mph /  1.3 km/h 5.0 mph /  8 km/h 97 % 0.0 in /  0 mm
07:48 0.9 °F /  -17.3 °C 0.5 °F /  -17.5 °C 999.9 in /  33856.6 hPa NE 1.0 mph /  1.6 km/h 5.0 mph /  8 km/h 97 % 0.0 in /  0 mm
07:58 0.9 °F /  -17.3 °C 0.5 °F /  -17.5 °C 999.9 in /  33856.6 hPa Calm   1.8 mph /  2.9 km/h 97 % 0.0 in /  0 mm
08:03 0.8 °F /  -17.3 °C 0.4 °F /  -17.6 °C 999.9 in /  33856.6 hPa North 0.3 mph /  0.5 km/h 4.3 mph /  6.9 km/h 97 % 0.0 in /  0 mm
08:13 0.7 °F /  -17.4 °C 0.3 °F /  -17.6 °C 1000.9 in /  33890.5 hPa NNE 1.9 mph /  3.1 km/h 5.5 mph /  8.9 km/h 97 % 0.0 in /  0 mm
08:18 0.7 °F /  -17.4 °C 0.3 °F /  -17.6 °C 1000.9 in /  33890.5 hPa NE 1.6 mph /  2.6 km/h 5.5 mph /  8.9 km/h 97 % 0.0 in /  0 mm
08:28 0.7 °F /  -17.4 °C 0.3 °F /  -17.6 °C 1000.9 in /  33890.5 hPa NE 1.0 mph /  1.6 km/h 4.3 mph /  6.9 km/h 97 % 0.0 in /  0 mm
08:33 0.7 °F /  -17.4 °C 0.3 °F /  -17.6 °C 1000.9 in /  33890.5 hPa NE 1.0 mph /  1.6 km/h 3.2 mph /  5.1 km/h 97 % 0.0 in /  0 mm
08:38 0.7 °F /  -17.4 °C 0.3 °F /  -17.6 °C 1000.9 in /  33890.5 hPa ENE 1.1 mph /  1.8 km/h 4.0 mph /  6.4 km/h 97 % 0.0 in /  0 mm
08:43 0.7 °F /  -17.4 °C 0.3 °F /  -17.6 °C 999.9 in /  33856.6 hPa ENE 1.1 mph /  1.8 km/h 4.0 mph /  6.4 km/h 97 % 0.0 in /  0 mm
08:48 0.7 °F /  -17.4 °C 0.3 °F /  -17.6 °C 999.9 in /  33856.6 hPa North 0.2 mph /  0.3 km/h 2.1 mph /  3.4 km/h 97 % 0.0 in /  0 mm
08:53 0.8 °F /  -17.3 °C 0.4 °F /  -17.6 °C 999.9 in /  33856.6 hPa Calm   1.8 mph /  2.9 km/h 97 % 0.0 in /  0 mm
08:58 0.8 °F /  -17.3 °C 0.4 °F /  -17.6 °C 999.9 in /  33856.6 hPa Calm   1.8 mph /  2.9 km/h 97 % 0.0 in /  0 mm
09:03 0.8 °F /  -17.3 °C 0.4 °F /  -17.6 °C 999.9 in /  33856.6 hPa Calm     97 % 0.0 in /  0 mm
09:08 0.9 °F /  -17.3 °C 0.5 °F /  -17.5 °C 999.9 in /  33856.6 hPa South 0.6 mph /  1 km/h 4.0 mph /  6.4 km/h 97 % 0.0 in /  0 mm
09:13 0.9 °F /  -17.3 °C 0.5 °F /  -17.5 °C 1000.9 in /  33890.5 hPa South 0.5 mph /  0.8 km/h 4.0 mph /  6.4 km/h 97 % 0.0 in /  0 mm
09:18 1.0 °F /  -17.2 °C 0.6 °F /  -17.4 °C 1000.9 in /  33890.5 hPa Calm     97 % 0.0 in /  0 mm
09:23 1.1 °F /  -17.2 °C 0.7 °F /  -17.4 °C 1000.9 in /  33890.5 hPa Calm     97 % 0.0 in /  0 mm
09:28 1.2 °F /  -17.1 °C 0.8 °F /  -17.3 °C 1000.9 in /  33890.5 hPa Calm   2.1 mph /  3.4 km/h 97 % 0.0 in /  0 mm
09:33 1.3 °F /  -17.1 °C 0.9 °F /  -17.3 °C 1000.9 in /  33890.5 hPa SSW 1.3 mph /  2.1 km/h 5.8 mph /  9.3 km/h 97 % 0.0 in /  0 mm
09:38 1.4 °F /  -17 °C 1.0 °F /  -17.2 °C 1000.9 in /  33890.5 hPa SSW 3.2 mph /  5.1 km/h 5.8 mph /  9.3 km/h 97 % 0.0 in /  0 mm
09:43 1.5 °F /  -16.9 °C 1.1 °F /  -17.2 °C 1000.9 in /  33890.5 hPa SSW 3.2 mph /  5.1 km/h 5.8 mph /  9.3 km/h 97 % 0.0 in /  0 mm
09:48 1.5 °F /  -16.9 °C 1.1 °F /  -17.2 °C 1000.9 in /  33890.5 hPa South 1.3 mph /  2.1 km/h 5.0 mph /  8 km/h 97 % 0.0 in /  0 mm
09:53 1.6 °F /  -16.9 °C 1.2 °F /  -17.1 °C 1000.9 in /  33890.5 hPa SE 0.8 mph /  1.3 km/h 4.7 mph /  7.6 km/h 97 % 0.0 in /  0 mm
09:58 1.6 °F /  -16.9 °C 1.2 °F /  -17.1 °C 1000.9 in /  33890.5 hPa SSW 1.3 mph /  2.1 km/h 4.7 mph /  7.6 km/h 97 % 0.0 in /  0 mm
10:03 1.6 °F /  -16.9 °C 1.2 °F /  -17.1 °C 1000.9 in /  33890.5 hPa WSW 2.7 mph /  4.3 km/h 6.4 mph /  10.3 km/h 97 % 0.0 in /  0 mm
10:08 1.6 °F /  -16.9 °C 1.2 °F /  -17.1 °C 1000.9 in /  33890.5 hPa WSW 4.0 mph /  6.4 km/h 6.4 mph /  10.3 km/h 97 % 0.0 in /  0 mm
10:13 1.8 °F /  -16.8 °C 1.4 °F /  -17 °C 1002.9 in /  33958.2 hPa SW 3.2 mph /  5.1 km/h 6.4 mph /  10.3 km/h 97 % 0.0 in /  0 mm
10:18 1.9 °F /  -16.7 °C 1.5 °F /  -16.9 °C 1002.9 in /  33958.2 hPa SSW 3.2 mph /  5.1 km/h 5.8 mph /  9.3 km/h 97 % 0.3 in /  7.62 mm
10:23 2.0 °F /  -16.7 °C 1.6 °F /  -16.9 °C 1002.9 in /  33958.2 hPa SSW 3.4 mph /  5.5 km/h 5.0 mph /  8 km/h 97 % 0.3 in /  7.62 mm
10:28 2.1 °F /  -16.6 °C 1.7 °F /  -16.8 °C 1002.9 in /  33958.2 hPa SSW 2.7 mph /  4.3 km/h 4.7 mph /  7.6 km/h 97 % 0.3 in /  7.62 mm
10:33 2.2 °F /  -16.6 °C 1.8 °F /  -16.8 °C 1002.9 in /  33958.2 hPa SSW 2.4 mph /  3.9 km/h 5.5 mph /  8.9 km/h 97 % 0.3 in /  7.62 mm
10:38 2.3 °F /  -16.5 °C 1.9 °F /  -16.7 °C 1002.9 in /  33958.2 hPa SSW 3.2 mph /  5.1 km/h 6.4 mph /  10.3 km/h 97 % 0.3 in /  7.62 mm
10:43 2.4 °F /  -16.4 °C 2.0 °F /  -16.7 °C 1002.9 in /  33958.2 hPa SSW 3.5 mph /  5.6 km/h 6.4 mph /  10.3 km/h 97 % 0.3 in /  7.62 mm
10:48 2.5 °F /  -16.4 °C 2.1 °F /  -16.6 °C 1002.9 in /  33958.2 hPa SSW 3.1 mph /  5 km/h 5.8 mph /  9.3 km/h 97 % 0.3 in /  7.62 mm
10:53 2.7 °F /  -16.3 °C 2.3 °F /  -16.5 °C 1002.9 in /  33958.2 hPa SW 1.9 mph /  3.1 km/h 5.0 mph /  8 km/h 97 % 0.3 in /  7.62 mm
10:58 2.7 °F /  -16.3 °C 2.3 °F /  -16.5 °C 1001.9 in /  33924.3 hPa SSW 0.6 mph /  1 km/h 4.0 mph /  6.4 km/h 97 % 0.3 in /  7.62 mm
11:03 2.8 °F /  -16.2 °C 2.5 °F /  -16.4 °C 1001.9 in /  33924.3 hPa SSE 0.2 mph /  0.3 km/h 3.2 mph /  5.1 km/h 98 % 0.3 in /  7.62 mm
11:08 3.0 °F /  -16.1 °C 2.6 °F /  -16.3 °C 1001.9 in /  33924.3 hPa SSE 1.0 mph /  1.6 km/h 5.8 mph /  9.3 km/h 97 % 0.3 in /  7.62 mm
11:13 3.2 °F /  -16 °C 2.8 °F /  -16.2 °C 1001.9 in /  33924.3 hPa SSE 2.1 mph /  3.4 km/h 5.8 mph /  9.3 km/h 97 % 0.3 in /  7.62 mm
11:18 3.3 °F /  -15.9 °C 2.9 °F /  -16.2 °C 1001.9 in /  33924.3 hPa SE 2.4 mph /  3.9 km/h 5.5 mph /  8.9 km/h 97 % 0.0 in /  0 mm
11:23 3.4 °F /  -15.9 °C 2.9 °F /  -16.2 °C 1001.9 in /  33924.3 hPa SE 2.9 mph /  4.7 km/h 5.5 mph /  8.9 km/h 97 % 0.0 in /  0 mm
11:28 3.6 °F /  -15.8 °C 3.2 °F /  -16 °C 1002.9 in /  33958.2 hPa SE 2.9 mph /  4.7 km/h 6.1 mph /  9.8 km/h 97 % 0.0 in /  0 mm
11:33 3.6 °F /  -15.8 °C 3.2 °F /  -16 °C 1002.9 in /  33958.2 hPa ESE 4.0 mph /  6.4 km/h 6.4 mph /  10.3 km/h 97 % 0.0 in /  0 mm
11:38 3.6 °F /  -15.8 °C 3.2 °F /  -16 °C 1002.9 in /  33958.2 hPa ESE 4.3 mph /  6.9 km/h 6.4 mph /  10.3 km/h 97 % 0.0 in /  0 mm
11:43 3.7 °F /  -15.7 °C 3.3 °F /  -15.9 °C 1002.9 in /  33958.2 hPa ESE 3.9 mph /  6.3 km/h 6.1 mph /  9.8 km/h 97 % 0.0 in /  0 mm
11:48 3.9 °F /  -15.6 °C 3.4 °F /  -15.9 °C 1002.9 in /  33958.2 hPa ESE 3.2 mph /  5.1 km/h 6.1 mph /  9.8 km/h 97 % 0.0 in /  0 mm
11:53 4.2 °F /  -15.4 °C 3.8 °F /  -15.7 °C 1002.9 in /  33958.2 hPa ESE 3.1 mph /  5 km/h 5.0 mph /  8 km/h 97 % 0.0 in /  0 mm
11:58 4.5 °F /  -15.3 °C 4.1 °F /  -15.5 °C 1002.9 in /  33958.2 hPa ESE 3.5 mph /  5.6 km/h 6.1 mph /  9.8 km/h 97 % 0.0 in /  0 mm
12:03 4.9 °F /  -15.1 °C 4.4 °F /  -15.3 °C 1002.9 in /  33958.2 hPa SE 4.7 mph /  7.6 km/h 6.9 mph /  11.1 km/h 97 % 0.0 in /  0 mm
12:08 5.1 °F /  -14.9 °C 4.7 °F /  -15.2 °C 1002.9 in /  33958.2 hPa SE 4.7 mph /  7.6 km/h 6.9 mph /  11.1 km/h 97 % 0.0 in /  0 mm
12:13 5.3 °F /  -14.8 °C 4.9 °F /  -15.1 °C 1002.9 in /  33958.2 hPa SE 3.2 mph /  5.1 km/h 6.9 mph /  11.1 km/h 97 % 0.0 in /  0 mm
12:18 5.7 °F /  -14.6 °C 5.3 °F /  -14.8 °C 1002.9 in /  33958.2 hPa SSE 2.4 mph /  3.9 km/h 6.1 mph /  9.8 km/h 97 % 0.0 in /  0 mm
12:23 6.0 °F /  -14.4 °C 5.6 °F /  -14.7 °C 1002.9 in /  33958.2 hPa South 1.3 mph /  2.1 km/h 4.7 mph /  7.6 km/h 97 % 0.0 in /  0 mm
12:28 6.2 °F /  -14.3 °C 5.8 °F /  -14.6 °C 1001.9 in /  33924.3 hPa North 0.2 mph /  0.3 km/h   97 % 0.0 in /  0 mm
12:33 6.6 °F /  -14.1 °C 6.2 °F /  -14.3 °C 1001.9 in /  33924.3 hPa SSW 0.3 mph /  0.5 km/h 4.0 mph /  6.4 km/h 97 % 0.0 in /  0 mm
12:38 6.9 °F /  -13.9 °C 6.4 °F /  -14.2 °C 1001.9 in /  33924.3 hPa South 0.3 mph /  0.5 km/h 4.0 mph /  6.4 km/h 97 % 0.0 in /  0 mm
12:43 7.0 °F /  -13.9 °C 6.6 °F /  -14.1 °C 1002.9 in /  33958.2 hPa ESE 1.0 mph /  1.6 km/h 4.7 mph /  7.6 km/h 97 % 0.0 in /  0 mm
12:48 7.3 °F /  -13.7 °C 6.8 °F /  -14 °C 1002.9 in /  33958.2 hPa SE 1.0 mph /  1.6 km/h 4.7 mph /  7.6 km/h 97 % 0.0 in /  0 mm
12:53 7.6 °F /  -13.6 °C 7.2 °F /  -13.8 °C 1002.9 in /  33958.2 hPa South 1.0 mph /  1.6 km/h 4.3 mph /  6.9 km/h 97 % 0.0 in /  0 mm
12:58 7.9 °F /  -13.4 °C 7.4 °F /  -13.7 °C 1002.9 in /  33958.2 hPa SSE 3.4 mph /  5.5 km/h 11.6 mph /  18.7 km/h 97 % 0.0 in /  0 mm
13:03 8.2 °F /  -13.2 °C 7.6 °F /  -13.6 °C 1002.9 in /  33958.2 hPa SSE 5.5 mph /  8.9 km/h 11.6 mph /  18.7 km/h 96 % 0.0 in /  0 mm
13:08 8.4 °F /  -13.1 °C 7.8 °F /  -13.4 °C 1002.9 in /  33958.2 hPa SSE 6.4 mph /  10.3 km/h 10.1 mph /  16.3 km/h 96 % 0.0 in /  0 mm
13:13 8.4 °F /  -13.1 °C 7.8 °F /  -13.4 °C 1002.9 in /  33958.2 hPa ESE 6.9 mph /  11.1 km/h 10.5 mph /  16.9 km/h 96 % 0.0 in /  0 mm
13:18 8.4 °F /  -13.1 °C 7.8 °F /  -13.4 °C 1002.9 in /  33958.2 hPa ESE 7.1 mph /  11.4 km/h 12.2 mph /  19.6 km/h 96 % 0.0 in /  0 mm
13:23 8.3 °F /  -13.2 °C 7.6 °F /  -13.6 °C 1002.9 in /  33958.2 hPa ESE 8.5 mph /  13.7 km/h 16.3 mph /  26.2 km/h 95 % 0.0 in /  0 mm
13:28 8.3 °F /  -13.2 °C 7.6 °F /  -13.6 °C 1002.9 in /  33958.2 hPa ESE 10.0 mph /  16.1 km/h 17.7 mph /  28.5 km/h 95 % 0.0 in /  0 mm
13:33 8.2 °F /  -13.2 °C 7.3 °F /  -13.7 °C 1002.9 in /  33958.2 hPa ESE 9.7 mph /  15.6 km/h 17.7 mph /  28.5 km/h 94 % 0.0 in /  0 mm
13:38 8.2 °F /  -13.2 °C 7.1 °F /  -13.8 °C 1002.9 in /  33958.2 hPa East 9.0 mph /  14.5 km/h 15.8 mph /  25.4 km/h 93 % 0.0 in /  0 mm
13:43 8.3 °F /  -13.2 °C 6.9 °F /  -13.9 °C 1003.9 in /  33992.1 hPa ENE 9.3 mph /  15 km/h 14.0 mph /  22.5 km/h 91 % 0.0 in /  0 mm
13:48 8.4 °F /  -13.1 °C 6.7 °F /  -14.1 °C 1003.9 in /  33992.1 hPa ENE 10.3 mph /  16.6 km/h 14.0 mph /  22.5 km/h 89 % 0.0 in /  0 mm
13:53 8.4 °F /  -13.1 °C 6.3 °F /  -14.3 °C 1003.9 in /  33992.1 hPa ENE 9.5 mph /  15.3 km/h 14.3 mph /  23 km/h 87 % 0.0 in /  0 mm
13:58 8.5 °F /  -13.1 °C 6.3 °F /  -14.3 °C 1003.9 in /  33992.1 hPa East 8.8 mph /  14.2 km/h 14.3 mph /  23 km/h 86 % 0.0 in /  0 mm
14:03 8.6 °F /  -13 °C 6.2 °F /  -14.3 °C 1003.9 in /  33992.1 hPa East 8.4 mph /  13.5 km/h 13.7 mph /  22 km/h 85 % 0.0 in /  0 mm
14:08 8.5 °F /  -13.1 °C 5.6 °F /  -14.7 °C 1003.9 in /  33992.1 hPa East 9.0 mph /  14.5 km/h 14.0 mph /  22.5 km/h 82 % 0.0 in /  0 mm
14:14 8.4 °F /  -13.1 °C 5.2 °F /  -14.9 °C 1003.9 in /  33992.1 hPa East 10.3 mph /  16.6 km/h 20.1 mph /  32.3 km/h 80 % 0.0 in /  0 mm
14:19 8.3 °F /  -13.2 °C 4.7 °F /  -15.2 °C 1003.9 in /  33992.1 hPa East 8.8 mph /  14.2 km/h 20.1 mph /  32.3 km/h 78 % 0.0 in /  0 mm
14:24 8.2 °F /  -13.2 °C 4.2 °F /  -15.4 °C 1003.9 in /  33992.1 hPa East 6.9 mph /  11.1 km/h 11.9 mph /  19.2 km/h 76 % 0.0 in /  0 mm
14:29 8.1 °F /  -13.3 °C 3.9 °F /  -15.6 °C 1003.9 in /  33992.1 hPa NE 6.6 mph /  10.6 km/h 11.9 mph /  19.2 km/h 75 % 0.0 in /  0 mm
14:34 8.0 °F /  -13.3 °C 3.4 °F /  -15.9 °C 1003.9 in /  33992.1 hPa ENE 6.0 mph /  9.7 km/h 8.7 mph /  14 km/h 73 % 0.0 in /  0 mm
14:39 7.9 °F /  -13.4 °C 3.3 °F /  -15.9 °C 1003.9 in /  33992.1 hPa East 5.1 mph /  8.2 km/h 7.9 mph /  12.7 km/h 73 % 0.0 in /  0 mm
14:44 7.9 °F /  -13.4 °C 3.2 °F /  -16 °C 1005.0 in /  34029.3 hPa East 4.8 mph /  7.7 km/h 10.1 mph /  16.3 km/h 72 % 0.0 in /  0 mm
14:49 7.9 °F /  -13.4 °C 2.9 °F /  -16.2 °C 1005.0 in /  34029.3 hPa ENE 5.5 mph /  8.9 km/h 10.5 mph /  16.9 km/h 71 % 0.0 in /  0 mm
14:54 7.8 °F /  -13.4 °C 2.7 °F /  -16.3 °C 1005.0 in /  34029.3 hPa ENE 5.5 mph /  8.9 km/h 10.5 mph /  16.9 km/h 70 % 0.0 in /  0 mm
14:59 7.8 °F /  -13.4 °C 2.4 °F /  -16.4 °C 1005.0 in /  34029.3 hPa ENE 5.1 mph /  8.2 km/h 7.9 mph /  12.7 km/h 69 % 0.0 in /  0 mm
15:04 7.6 °F /  -13.6 °C 2.1 °F /  -16.6 °C 1005.0 in /  34029.3 hPa ENE 4.8 mph /  7.7 km/h 7.9 mph /  12.7 km/h 68 % 0.0 in /  0 mm
15:09 7.5 °F /  -13.6 °C 1.8 °F /  -16.8 °C 1005.0 in /  34029.3 hPa ENE 4.7 mph /  7.6 km/h 9.3 mph /  15 km/h 67 % 0.0 in /  0 mm
15:14 7.4 °F /  -13.7 °C 1.7 °F /  -16.8 °C 1005.0 in /  34029.3 hPa ENE 4.8 mph /  7.7 km/h 9.7 mph /  15.6 km/h 67 % 0.0 in /  0 mm
15:19 7.4 °F /  -13.7 °C 1.4 °F /  -17 °C 1005.0 in /  34029.3 hPa ENE 6.3 mph /  10.1 km/h 14.0 mph /  22.5 km/h 66 % 0.0 in /  0 mm
15:24 7.4 °F /  -13.7 °C 1.1 °F /  -17.2 °C 1005.0 in /  34029.3 hPa ENE 9.2 mph /  14.8 km/h 21.9 mph /  35.2 km/h 64 % 0.0 in /  0 mm
15:29 7.4 °F /  -13.7 °C 0.8 °F /  -17.3 °C 1006.0 in /  34063.2 hPa ENE 9.5 mph /  15.3 km/h 21.9 mph /  35.2 km/h 63 % 0.0 in /  0 mm
15:34 7.3 °F /  -13.7 °C 0.3 °F /  -17.6 °C 1006.0 in /  34063.2 hPa East 8.5 mph /  13.7 km/h 13.7 mph /  22 km/h 61 % 0.0 in /  0 mm
15:39 7.2 °F /  -13.8 °C -0.1 °F /  -17.8 °C 1006.0 in /  34063.2 hPa ENE 8.7 mph /  14 km/h 14.3 mph /  23 km/h 60 % 0.0 in /  0 mm
15:44 7.2 °F /  -13.8 °C -0.3 °F /  -17.9 °C 1007.0 in /  34097 hPa ENE 9.2 mph /  14.8 km/h 14.3 mph /  23 km/h 59 % 0.0 in /  0 mm
15:49 7.1 °F /  -13.8 °C -0.6 °F /  -18.1 °C 1007.0 in /  34097 hPa East 7.9 mph /  12.7 km/h 13.0 mph /  20.9 km/h 58 % 0.0 in /  0 mm
15:54 6.9 °F /  -13.9 °C -0.8 °F /  -18.2 °C 1007.0 in /  34097 hPa East 6.6 mph /  10.6 km/h 13.0 mph /  20.9 km/h 58 % 0.0 in /  0 mm
15:59 6.8 °F /  -14 °C -0.9 °F /  -18.3 °C 1006.0 in /  34063.2 hPa ENE 5.1 mph /  8.2 km/h 8.7 mph /  14 km/h 58 % 0.0 in /  0 mm
16:04 6.6 °F /  -14.1 °C -1.3 °F /  -18.5 °C 1006.0 in /  34063.2 hPa ENE 4.5 mph /  7.2 km/h 10.5 mph /  16.9 km/h 57 % 0.0 in /  0 mm
16:09 6.5 °F /  -14.2 °C -1.4 °F /  -18.6 °C 1006.0 in /  34063.2 hPa ENE 4.0 mph /  6.4 km/h 10.5 mph /  16.9 km/h 57 % 0.0 in /  0 mm
16:14 6.3 °F /  -14.3 °C -1.6 °F /  -18.7 °C 1007.0 in /  34097 hPa NE 4.0 mph /  6.4 km/h 9.0 mph /  14.5 km/h 57 % 0.0 in /  0 mm
16:19 6.1 °F /  -14.4 °C -1.8 °F /  -18.8 °C 1007.0 in /  34097 hPa NE 5.3 mph /  8.5 km/h 9.0 mph /  14.5 km/h 57 % 0.0 in /  0 mm
16:24 5.9 °F /  -14.5 °C -1.7 °F /  -18.7 °C 1007.0 in /  34097 hPa ENE 5.0 mph /  8 km/h 8.7 mph /  14 km/h 58 % 0.0 in /  0 mm
16:29 5.8 °F /  -14.6 °C -1.8 °F /  -18.8 °C 1008.0 in /  34130.9 hPa ENE 4.3 mph /  6.9 km/h 5.8 mph /  9.3 km/h 58 % 0.0 in /  0 mm
16:34 5.8 °F /  -14.6 °C -1.8 °F /  -18.8 °C 1008.0 in /  34130.9 hPa ENE 4.7 mph /  7.6 km/h 6.9 mph /  11.1 km/h 58 % 0.0 in /  0 mm
16:39 5.7 °F /  -14.6 °C -1.7 °F /  -18.7 °C 1008.0 in /  34130.9 hPa ENE 3.4 mph /  5.5 km/h 6.9 mph /  11.1 km/h 59 % 0.0 in /  0 mm
16:44 5.4 °F /  -14.8 °C -2.0 °F /  -18.9 °C 1008.0 in /  34130.9 hPa ENE 2.1 mph /  3.4 km/h 6.9 mph /  11.1 km/h 59 % 0.0 in /  0 mm
16:49 5.1 °F /  -14.9 °C -2.1 °F /  -18.9 °C 1008.0 in /  34130.9 hPa ENE 2.3 mph /  3.7 km/h 4.3 mph /  6.9 km/h 60 % 0.0 in /  0 mm
16:54 4.9 °F /  -15.1 °C -2.0 °F /  -18.9 °C 1008.0 in /  34130.9 hPa NNE 1.6 mph /  2.6 km/h 4.0 mph /  6.4 km/h 61 % 0.0 in /  0 mm
16:59 4.6 °F /  -15.2 °C -2.3 °F /  -19.1 °C 1008.0 in /  34130.9 hPa NW 2.1 mph /  3.4 km/h 4.3 mph /  6.9 km/h 61 % 0.0 in /  0 mm
17:04 4.4 °F /  -15.3 °C -2.3 °F /  -19.1 °C 1008.0 in /  34130.9 hPa NW 3.1 mph /  5 km/h 5.0 mph /  8 km/h 62 % 0.0 in /  0 mm
17:09 4.1 °F /  -15.5 °C -2.3 °F /  -19.1 °C 1008.0 in /  34130.9 hPa NW 3.5 mph /  5.6 km/h 6.9 mph /  11.1 km/h 63 % 0.0 in /  0 mm
17:14 3.8 °F /  -15.7 °C -2.6 °F /  -19.2 °C 1009.0 in /  34164.7 hPa NNW 3.5 mph /  5.6 km/h 6.9 mph /  11.1 km/h 63 % 0.0 in /  0 mm
17:19 3.6 °F /  -15.8 °C -2.6 °F /  -19.2 °C 1009.0 in /  34164.7 hPa NNW 2.9 mph /  4.7 km/h 6.4 mph /  10.3 km/h 64 % 0.0 in /  0 mm
17:24 3.4 °F /  -15.9 °C -2.6 °F /  -19.2 °C 1009.0 in /  34164.7 hPa WNW 2.3 mph /  3.7 km/h 5.8 mph /  9.3 km/h 65 % 0.0 in /  0 mm
17:29 3.1 °F /  -16.1 °C -2.7 °F /  -19.3 °C 1009.0 in /  34164.7 hPa West 1.6 mph /  2.6 km/h 4.3 mph /  6.9 km/h 66 % 0.0 in /  0 mm
17:34 3.0 °F /  -16.1 °C -2.7 °F /  -19.3 °C 1009.0 in /  34164.7 hPa NW 1.4 mph /  2.3 km/h 4.0 mph /  6.4 km/h 66 % 0.0 in /  0 mm
17:39 2.8 °F /  -16.2 °C -2.7 °F /  -19.3 °C 1009.0 in /  34164.7 hPa WSW 2.7 mph /  4.3 km/h 5.8 mph /  9.3 km/h 67 % 0.0 in /  0 mm
17:44 2.6 °F /  -16.3 °C -2.7 °F /  -19.3 °C 1008.0 in /  34130.9 hPa WSW 3.5 mph /  5.6 km/h 5.8 mph /  9.3 km/h 68 % 0.0 in /  0 mm
17:49 2.3 °F /  -16.5 °C -3.0 °F /  -19.4 °C 1008.0 in /  34130.9 hPa WNW 2.6 mph /  4.2 km/h 5.0 mph /  8 km/h 68 % 0.0 in /  0 mm
17:54 2.1 °F /  -16.6 °C -3.2 °F /  -19.6 °C 1008.0 in /  34130.9 hPa NW 2.4 mph /  3.9 km/h 4.3 mph /  6.9 km/h 68 % 0.0 in /  0 mm
17:59 1.9 °F /  -16.7 °C -3.2 °F /  -19.6 °C 1009.0 in /  34164.7 hPa NW 1.9 mph /  3.1 km/h 4.3 mph /  6.9 km/h 69 % 0.0 in /  0 mm
18:04 1.7 °F /  -16.8 °C -3.2 °F /  -19.6 °C 1009.0 in /  34164.7 hPa NNW 1.1 mph /  1.8 km/h 5.0 mph /  8 km/h 70 % 0.0 in /  0 mm
18:09 1.6 °F /  -16.9 °C -3.3 °F /  -19.6 °C 1009.0 in /  34164.7 hPa West 1.0 mph /  1.6 km/h 5.0 mph /  8 km/h 70 % 0.0 in /  0 mm
18:14 1.4 °F /  -17 °C -3.5 °F /  -19.7 °C 1010.0 in /  34198.6 hPa SW 0.6 mph /  1 km/h 4.3 mph /  6.9 km/h 70 % 0.0 in /  0 mm
18:19 1.3 °F /  -17.1 °C -3.4 °F /  -19.7 °C 1010.0 in /  34198.6 hPa South 0.5 mph /  0.8 km/h 4.3 mph /  6.9 km/h 71 % 0.0 in /  0 mm
18:24 1.2 °F /  -17.1 °C -3.5 °F /  -19.7 °C 1010.0 in /  34198.6 hPa WSW 0.6 mph /  1 km/h 4.3 mph /  6.9 km/h 71 % 0.0 in /  0 mm
18:29 1.0 °F /  -17.2 °C -3.5 °F /  -19.7 °C 1011.1 in /  34235.8 hPa WSW 1.4 mph /  2.3 km/h 4.3 mph /  6.9 km/h 72 % 0.0 in /  0 mm
18:34 0.9 °F /  -17.3 °C -3.6 °F /  -19.8 °C 1011.1 in /  34235.8 hPa WSW 1.0 mph /  1.6 km/h 4.3 mph /  6.9 km/h 72 % 0.0 in /  0 mm
18:39 0.7 °F /  -17.4 °C -3.6 °F /  -19.8 °C 1011.1 in /  34235.8 hPa Calm     73 % 0.0 in /  0 mm
18:44 0.7 °F /  -17.4 °C -3.6 °F /  -19.8 °C 1011.1 in /  34235.8 hPa Calm     73 % 0.0 in /  0 mm
18:49 0.5 °F /  -17.5 °C -3.8 °F /  -19.9 °C 1011.1 in /  34235.8 hPa Calm   5.0 mph /  8 km/h 73 % 0.0 in /  0 mm
18:54 0.4 °F /  -17.6 °C -3.7 °F /  -19.8 °C 1011.1 in /  34235.8 hPa WNW 1.1 mph /  1.8 km/h 5.0 mph /  8 km/h 74 % 0.0 in /  0 mm
18:59 0.4 °F /  -17.6 °C -3.7 °F /  -19.8 °C 1012.1 in /  34269.7 hPa West 1.8 mph /  2.9 km/h 4.0 mph /  6.4 km/h 74 % 0.0 in /  0 mm
19:04 0.3 °F /  -17.6 °C -3.8 °F /  -19.9 °C 1012.1 in /  34269.7 hPa NW 1.1 mph /  1.8 km/h 4.0 mph /  6.4 km/h 74 % 0.0 in /  0 mm
19:09 0.2 °F /  -17.7 °C -3.7 °F /  -19.8 °C 1012.1 in /  34269.7 hPa NNW 1.1 mph /  1.8 km/h 4.0 mph /  6.4 km/h 75 % 0.0 in /  0 mm
19:14 0.1 °F /  -17.7 °C -3.8 °F /  -19.9 °C 1010.0 in /  34198.6 hPa NW 0.6 mph /  1 km/h 4.0 mph /  6.4 km/h 75 % 0.0 in /  0 mm
19:19 0.0 °F /  -17.8 °C -3.9 °F /  -19.9 °C 1010.0 in /  34198.6 hPa NW 1.1 mph /  1.8 km/h 4.7 mph /  7.6 km/h 75 % 0.0 in /  0 mm
19:24 0.0 °F /  -17.8 °C -3.9 °F /  -19.9 °C 1010.0 in /  34198.6 hPa NW 1.1 mph /  1.8 km/h 4.7 mph /  7.6 km/h 75 % 0.0 in /  0 mm
19:29 -0.2 °F /  -17.9 °C -3.9 °F /  -19.9 °C 1011.1 in /  34235.8 hPa WNW 0.8 mph /  1.3 km/h 3.2 mph /  5.1 km/h 76 % 0.0 in /  0 mm
19:34 -0.3 °F /  -17.9 °C -4.0 °F /  -20 °C 1011.1 in /  34235.8 hPa WNW 0.6 mph /  1 km/h 3.2 mph /  5.1 km/h 76 % 0.0 in /  0 mm
19:39 -0.3 °F /  -17.9 °C -4.0 °F /  -20 °C 1011.1 in /  34235.8 hPa Calm     76 % 0.0 in /  0 mm
19:44 -0.3 °F /  -17.9 °C -4.0 °F /  -20 °C 1012.1 in /  34269.7 hPa Calm     76 % 0.0 in /  0 mm
19:49 -0.3 °F /  -17.9 °C -3.8 °F /  -19.9 °C 1012.1 in /  34269.7 hPa North 0.2 mph /  0.3 km/h 1.8 mph /  2.9 km/h 77 % 0.0 in /  0 mm
19:54 -0.3 °F /  -17.9 °C -3.8 °F /  -19.9 °C 1012.1 in /  34269.7 hPa West 0.3 mph /  0.5 km/h 2.1 mph /  3.4 km/h 77 % 0.0 in /  0 mm
19:59 -0.3 °F /  -17.9 °C -3.8 °F /  -19.9 °C 1012.1 in /  34269.7 hPa WSW 0.5 mph /  0.8 km/h 2.6 mph /  4.2 km/h 77 % 0.0 in /  0 mm
20:04 -0.3 °F /  -17.9 °C -3.7 °F /  -19.8 °C 1012.1 in /  34269.7 hPa SW 0.3 mph /  0.5 km/h 2.6 mph /  4.2 km/h 78 % 0.0 in /  0 mm
20:09 -0.2 °F /  -17.9 °C -3.6 °F /  -19.8 °C 1012.1 in /  34269.7 hPa NW 0.6 mph /  1 km/h 4.3 mph /  6.9 km/h 78 % 0.0 in /  0 mm
20:14 -0.2 °F /  -17.9 °C -3.6 °F /  -19.8 °C 1013.1 in /  34303.6 hPa NW 0.6 mph /  1 km/h 4.3 mph /  6.9 km/h 78 % 0.0 in /  0 mm
20:19 -0.1 °F /  -17.8 °C -3.3 °F /  -19.6 °C 1013.1 in /  34303.6 hPa Calm   1.4 mph /  2.3 km/h 79 % 0.0 in /  0 mm
20:24 0.0 °F /  -17.8 °C -3.2 °F /  -19.6 °C 1013.1 in /  34303.6 hPa Calm     79 % 0.0 in /  0 mm
20:29 0.0 °F /  -17.8 °C -3.2 °F /  -19.6 °C 1013.1 in /  34303.6 hPa Calm     79 % 0.0 in /  0 mm
20:34 0.1 °F /  -17.7 °C -3.1 °F /  -19.5 °C 1013.1 in /  34303.6 hPa Calm     79 % 0.0 in /  0 mm
20:39 0.1 °F /  -17.7 °C -2.9 °F /  -19.4 °C 1013.1 in /  34303.6 hPa Calm     80 % 0.0 in /  0 mm
20:44 0.1 °F /  -17.7 °C -2.9 °F /  -19.4 °C 1013.1 in /  34303.6 hPa West 0.8 mph /  1.3 km/h 5.8 mph /  9.3 km/h 80 % 0.0 in /  0 mm
20:49 0.1 °F /  -17.7 °C -2.9 °F /  -19.4 °C 1013.1 in /  34303.6 hPa WNW 1.4 mph /  2.3 km/h 5.8 mph /  9.3 km/h 80 % 0.0 in /  0 mm
20:54 0.2 °F /  -17.7 °C -2.7 °F /  -19.3 °C 1013.1 in /  34303.6 hPa North 0.8 mph /  1.3 km/h 4.0 mph /  6.4 km/h 81 % 0.0 in /  0 mm
20:59 0.3 °F /  -17.6 °C -2.6 °F /  -19.2 °C 1013.1 in /  34303.6 hPa ENE 0.8 mph /  1.3 km/h 4.7 mph /  7.6 km/h 81 % 0.0 in /  0 mm
21:04 0.6 °F /  -17.4 °C -2.1 °F /  -18.9 °C 1013.1 in /  34303.6 hPa ENE 3.1 mph /  5 km/h 9.3 mph /  15 km/h 82 % 0.0 in /  0 mm
21:09 0.7 °F /  -17.4 °C -2.0 °F /  -18.9 °C 1013.1 in /  34303.6 hPa East 4.3 mph /  6.9 km/h 9.3 mph /  15 km/h 82 % 0.0 in /  0 mm
21:19 1.0 °F /  -17.2 °C -1.7 °F /  -18.7 °C 1013.1 in /  34303.6 hPa ESE 2.1 mph /  3.4 km/h 6.9 mph /  11.1 km/h 82 % 0.0 in /  0 mm
21:24 1.1 °F /  -17.2 °C -1.4 °F /  -18.6 °C 1013.1 in /  34303.6 hPa SE 3.7 mph /  6 km/h 6.9 mph /  11.1 km/h 83 % 0.0 in /  0 mm
21:34 1.2 °F /  -17.1 °C -1.4 °F /  -18.6 °C 1013.1 in /  34303.6 hPa SE 5.0 mph /  8 km/h 7.9 mph /  12.7 km/h 83 % 0.0 in /  0 mm
21:39 1.1 °F /  -17.2 °C -1.4 °F /  -18.6 °C 1013.1 in /  34303.6 hPa SE 4.3 mph /  6.9 km/h 6.9 mph /  11.1 km/h 83 % 0.0 in /  0 mm
21:44 1.1 °F /  -17.2 °C -1.4 °F /  -18.6 °C 1014.1 in /  34337.4 hPa SE 3.1 mph /  5 km/h 6.1 mph /  9.8 km/h 83 % 0.0 in /  0 mm
21:49 0.9 °F /  -17.3 °C -1.5 °F /  -18.6 °C 1014.1 in /  34337.4 hPa SE 1.4 mph /  2.3 km/h 4.0 mph /  6.4 km/h 84 % 0.0 in /  0 mm
22:04 0.3 °F /  -17.6 °C -2.2 °F /  -19 °C 1014.1 in /  34337.4 hPa NW 1.4 mph /  2.3 km/h 5.8 mph /  9.3 km/h 83 % 0.0 in /  0 mm
22:09 0.1 °F /  -17.7 °C -2.4 °F /  -19.1 °C 1014.1 in /  34337.4 hPa NW 0.6 mph /  1 km/h 2.6 mph /  4.2 km/h 83 % 0.0 in /  0 mm
22:14 -0.1 °F /  -17.8 °C -2.7 °F /  -19.3 °C 1015.1 in /  34371.3 hPa Calm   2.6 mph /  4.2 km/h 83 % 0.0 in /  0 mm
22:19 -0.3 °F /  -17.9 °C -2.8 °F /  -19.3 °C 1015.1 in /  34371.3 hPa NNW 0.8 mph /  1.3 km/h 4.0 mph /  6.4 km/h 83 % 0.0 in /  0 mm
22:24 -0.4 °F /  -18 °C -2.9 °F /  -19.4 °C 1015.1 in /  34371.3 hPa NW 1.1 mph /  1.8 km/h 5.8 mph /  9.3 km/h 83 % 0.0 in /  0 mm
22:34 -0.6 °F /  -18.1 °C -3.1 °F /  -19.5 °C 1016.1 in /  34405.1 hPa WNW 3.7 mph /  6 km/h 6.4 mph /  10.3 km/h 83 % 0.0 in /  0 mm
22:39 -0.7 °F /  -18.2 °C -3.2 °F /  -19.6 °C 1016.1 in /  34405.1 hPa WNW 2.3 mph /  3.7 km/h 6.4 mph /  10.3 km/h 83 % 0.0 in /  0 mm
22:44 -0.7 °F /  -18.2 °C -3.2 °F /  -19.6 °C 1014.1 in /  34337.4 hPa SSW 0.2 mph /  0.3 km/h 4.0 mph /  6.4 km/h 83 % 0.0 in /  0 mm
22:54 -0.7 °F /  -18.2 °C -3.2 °F /  -19.6 °C 1014.1 in /  34337.4 hPa SW 0.8 mph /  1.3 km/h 4.0 mph /  6.4 km/h 83 % 0.0 in /  0 mm
22:59 -0.7 °F /  -18.2 °C -3.2 °F /  -19.6 °C 1015.1 in /  34371.3 hPa SW 0.5 mph /  0.8 km/h 3.2 mph /  5.1 km/h 83 % 0.0 in /  0 mm
23:09 -0.7 °F /  -18.2 °C -3.1 °F /  -19.5 °C 1015.1 in /  34371.3 hPa NNW 1.0 mph /  1.6 km/h 4.0 mph /  6.4 km/h 84 % 0.0 in /  0 mm
23:14 -0.7 °F /  -18.2 °C -3.1 °F /  -19.5 °C 1015.1 in /  34371.3 hPa NNW 0.2 mph /  0.3 km/h 2.1 mph /  3.4 km/h 84 % 0.0 in /  0 mm
23:19 -0.6 °F /  -18.1 °C -2.9 °F /  -19.4 °C 1015.1 in /  34371.3 hPa Calm     84 % 0.0 in /  0 mm
23:24 -0.5 °F /  -18.1 °C -2.9 °F /  -19.4 °C 1015.1 in /  34371.3 hPa Calm     84 % 0.0 in /  0 mm
23:34 -0.5 °F /  -18.1 °C -2.7 °F /  -19.3 °C 1016.1 in /  34405.1 hPa Calm     85 % 0.0 in /  0 mm
23:39 -0.5 °F /  -18.1 °C -2.7 °F /  -19.3 °C 1016.1 in /  34405.1 hPa Calm     85 % 0.0 in /  0 mm
23:44 -0.4 °F /  -18 °C -2.6 °F /  -19.2 °C 1016.1 in /  34405.1 hPa Calm     85 % 0.0 in /  0 mm
23:49 -0.4 °F /  -18 °C -2.6 °F /  -19.2 °C 1016.1 in /  34405.1 hPa Calm     85 % 0.0 in /  0 mm
23:54 -0.3 °F /  -17.9 °C -2.5 °F /  -19.2 °C 1016.1 in /  34405.1 hPa Calm     85 % 0.0 in /  0 mm
23:59 -0.3 °F /  -17.9 °C -2.3 °F /  -19.1 °C 1016.1 in /  34405.1 hPa Calm     86 % 0.0 in /  0 mm
Vremenska postaja Senovo
Podatki zbrani iz Weather Underground - 2.75 mb

Script developed by  Jim McMurry - jmcmurry@mwt.net Adapted for the template by  Wim van der Kuil - Leuven-Template.eu

Vremenski podatki so objavljeni na:

European Weather Network

WeatherCloud

Weather Underground

AWEKAS

HAMweather, WeatherForYou, PWS Weather

MapView

Geostik

Slovenia weather network

Oprema, ki se uporablja:

Vremenski program
Cumulus

Vremenski server
Asus

Cumulus

Asus